createdAt,value
2023-05-02T00:02:26.154Z,54.42
2023-05-02T00:04:54.712Z,32.53
2023-05-02T00:07:22.918Z,25.25
2023-05-02T00:09:51.554Z,26.17
2023-05-02T00:12:20.778Z,26.27
2023-05-02T00:14:49.109Z,25.08
2023-05-02T00:17:20.785Z,26.10
2023-05-02T00:19:49.099Z,23.50
2023-05-02T00:22:17.549Z,21.27
2023-05-02T00:24:45.558Z,20.65
2023-05-02T00:27:14.455Z,22.00
2023-05-02T00:29:43.033Z,21.17
2023-05-02T00:32:11.258Z,19.75
2023-05-02T00:34:41.256Z,22.00
2023-05-02T00:37:09.571Z,24.70
2023-05-02T00:39:41.137Z,25.58
2023-05-02T00:42:09.791Z,24.05
2023-05-02T00:44:38.240Z,27.85
2023-05-02T00:47:06.846Z,26.63
2023-05-02T00:49:35.079Z,20.80
2023-05-02T00:52:04.683Z,18.92
2023-05-02T00:54:32.893Z,22.60
2023-05-02T00:57:01.238Z,20.42
2023-05-02T00:59:30.349Z,22.17
2023-05-02T01:02:06.764Z,21.13
2023-05-02T01:04:45.772Z,20.08
2023-05-02T01:07:37.214Z,20.70
2023-05-02T01:10:16.469Z,18.55
2023-05-02T01:12:52.780Z,25.27
2023-05-02T01:15:23.714Z,27.70
2023-05-02T01:17:53.761Z,30.73
2023-05-02T01:20:24.978Z,37.08
2023-05-02T01:22:57.517Z,32.55
2023-05-02T01:25:38.594Z,39.75
2023-05-02T01:28:18.292Z,40.92
2023-05-02T01:30:51.774Z,34.22
2023-05-02T01:33:21.759Z,32.70
2023-05-02T01:35:53.050Z,30.55
2023-05-02T01:38:23.770Z,30.60
2023-05-02T01:40:53.295Z,29.75
2023-05-02T01:43:22.515Z,30.85
2023-05-02T01:45:54.568Z,29.75
2023-05-02T01:48:24.743Z,29.77
2023-05-02T01:50:53.554Z,28.45
2023-05-02T01:53:24.085Z,25.50
2023-05-02T01:55:54.045Z,28.95
2023-05-02T01:58:23.115Z,25.13
2023-05-02T02:00:54.085Z,25.77
2023-05-02T02:03:24.221Z,24.27
2023-05-02T02:05:55.533Z,23.38
2023-05-02T02:08:24.097Z,23.70
2023-05-02T02:10:58.906Z,25.15
2023-05-02T02:13:34.202Z,19.95
2023-05-02T02:16:07.341Z,21.05
2023-05-02T02:18:39.801Z,24.48
2023-05-02T02:21:10.957Z,25.27
2023-05-02T02:23:43.560Z,23.77
2023-05-02T02:26:17.156Z,22.90
2023-05-02T02:28:45.657Z,24.48
2023-05-02T02:31:15.816Z,21.15
2023-05-02T02:33:44.612Z,20.35
2023-05-02T02:36:16.962Z,18.90
2023-05-02T02:38:51.818Z,20.30
2023-05-02T02:41:27.693Z,23.50
2023-05-02T02:44:05.996Z,18.65
2023-05-02T02:46:48.683Z,19.15
2023-05-02T02:49:28.519Z,21.20
2023-05-02T02:52:04.177Z,19.50
2023-05-02T02:54:40.399Z,21.23
2023-05-02T02:57:17.713Z,19.05
2023-05-02T02:59:52.670Z,19.08
2023-05-02T03:04:55.113Z,19.95
2023-05-02T03:07:23.511Z,20.80
2023-05-02T03:09:51.859Z,19.05
2023-05-02T03:12:20.156Z,20.35
2023-05-02T03:14:48.557Z,20.27
2023-05-02T03:17:16.833Z,21.10
2023-05-02T03:19:47.389Z,28.65
2023-05-02T03:22:15.562Z,30.63
2023-05-02T03:24:43.854Z,29.25
2023-05-02T03:27:12.287Z,32.97
2023-05-02T03:29:40.391Z,28.20
2023-05-02T03:32:08.694Z,28.85
2023-05-02T03:34:39.548Z,28.52
2023-05-02T03:37:09.224Z,27.88
2023-05-02T03:39:37.281Z,27.40
2023-05-02T03:42:05.666Z,29.10
2023-05-02T03:44:33.778Z,26.58
2023-05-02T03:47:03.335Z,27.25
2023-05-02T03:49:31.501Z,30.40
2023-05-02T03:51:59.680Z,34.65
2023-05-02T03:54:29.234Z,31.30
2023-05-02T03:56:58.229Z,16.77
2023-05-02T03:59:27.419Z,21.58
2023-05-02T04:01:55.655Z,24.38
2023-05-02T04:04:23.795Z,22.13
2023-05-02T04:06:52.114Z,18.00
2023-05-02T04:09:25.236Z,19.73
2023-05-02T04:11:55.376Z,18.27
2023-05-02T04:14:23.630Z,20.50
2023-05-02T04:16:52.377Z,21.92
2023-05-02T04:19:20.801Z,17.48
2023-05-02T04:21:48.940Z,17.27
2023-05-02T04:24:17.080Z,20.05
2023-05-02T04:26:46.306Z,18.70
2023-05-02T04:29:15.802Z,18.52
2023-05-02T04:31:44.316Z,18.05
2023-05-02T04:34:12.604Z,22.23
2023-05-02T04:36:40.693Z,16.00
2023-05-02T04:39:08.874Z,18.67
2023-05-02T04:41:37.087Z,18.83
2023-05-02T04:44:05.335Z,20.20
2023-05-02T04:46:34.986Z,17.75
2023-05-02T04:49:05.824Z,22.58
2023-05-02T04:51:34.122Z,20.33
2023-05-02T04:54:02.217Z,21.52
2023-05-02T04:56:30.239Z,19.45
2023-05-02T04:58:58.433Z,16.17
2023-05-02T05:01:28.095Z,14.48
2023-05-02T05:03:58.174Z,20.80
2023-05-02T05:06:26.578Z,14.75
2023-05-02T05:08:54.709Z,11.45
2023-05-02T05:11:23.413Z,17.33
2023-05-02T05:13:51.783Z,13.18
2023-05-02T05:16:19.880Z,13.35
2023-05-02T05:18:49.371Z,14.75
2023-05-02T05:21:18.837Z,13.60
2023-05-02T05:23:47.779Z,19.88
2023-05-02T05:26:17.296Z,14.27
2023-05-02T05:28:45.874Z,12.95
2023-05-02T05:31:16.936Z,13.73
2023-05-02T05:33:45.506Z,8.70
2023-05-02T05:36:15.096Z,12.50
2023-05-02T05:38:44.782Z,10.77
2023-05-02T05:41:12.932Z,13.77
2023-05-02T05:43:40.955Z,11.30
2023-05-02T05:46:09.152Z,10.48
2023-05-02T05:48:37.279Z,8.45
2023-05-02T05:51:06.520Z,10.23
2023-05-02T05:53:34.735Z,10.70
2023-05-02T05:56:11.212Z,9.38
2023-05-02T05:58:40.035Z,8.10
2023-05-02T06:01:09.326Z,11.45
2023-05-02T06:03:37.614Z,11.75
2023-05-02T06:06:06.509Z,8.52
2023-05-02T06:08:34.760Z,9.95
2023-05-02T06:11:02.909Z,9.00
2023-05-02T06:13:32.506Z,8.20
2023-05-02T06:16:02.653Z,13.48
2023-05-02T06:18:31.625Z,14.50
2023-05-02T06:20:59.820Z,9.75
2023-05-02T06:23:27.938Z,11.98
2023-05-02T06:25:56.179Z,13.85
2023-05-02T06:28:24.530Z,12.13
2023-05-02T06:31:01.305Z,8.32
2023-05-02T06:33:29.668Z,9.75
2023-05-02T06:35:59.259Z,10.57
2023-05-02T06:38:29.728Z,16.50
2023-05-02T06:40:57.983Z,14.90
2023-05-02T06:43:26.140Z,15.98
2023-05-02T06:45:55.609Z,8.82
2023-05-02T06:48:25.252Z,14.77
2023-05-02T06:50:54.123Z,12.70
2023-05-02T06:53:22.356Z,14.35
2023-05-02T06:55:51.199Z,13.68
2023-05-02T06:58:19.344Z,11.98
2023-05-02T07:00:48.889Z,8.32
2023-05-02T07:03:17.423Z,8.27
2023-05-02T07:05:46.915Z,13.55
2023-05-02T07:08:15.044Z,13.63
2023-05-02T07:10:43.220Z,9.40
2023-05-02T07:13:11.403Z,12.63
2023-05-02T07:15:39.719Z,8.07
2023-05-02T07:18:07.855Z,13.18
2023-05-02T07:20:36.077Z,12.00
2023-05-02T07:23:05.535Z,11.27
2023-05-02T07:25:33.853Z,25.05
2023-05-02T07:28:02.027Z,10.52
2023-05-02T07:30:30.286Z,9.20
2023-05-02T07:32:58.480Z,8.40
2023-05-02T07:35:26.924Z,11.48
2023-05-02T07:37:55.148Z,7.72
2023-05-02T07:40:24.770Z,9.27
2023-05-02T07:42:52.944Z,9.13
2023-05-02T07:45:21.352Z,10.45
2023-05-02T07:47:49.705Z,12.60
2023-05-02T07:50:18.018Z,8.02
2023-05-02T07:52:46.108Z,8.02
2023-05-02T07:55:15.230Z,7.88
2023-05-02T07:57:44.676Z,7.85
2023-05-02T08:00:13.798Z,9.13
2023-05-02T08:02:42.871Z,7.55
2023-05-02T08:05:11.410Z,5.60
2023-05-02T08:07:39.784Z,6.50
2023-05-02T08:10:09.390Z,6.85
2023-05-02T08:12:40.262Z,5.05
2023-05-02T08:15:14.064Z,6.40
2023-05-02T08:17:42.267Z,5.03
2023-05-02T08:20:11.082Z,6.13
2023-05-02T08:22:39.328Z,6.63
2023-05-02T08:25:08.169Z,6.10
2023-05-02T08:27:36.514Z,6.85
2023-05-02T08:30:05.318Z,5.90
2023-05-02T08:32:35.411Z,16.75
2023-05-02T08:35:03.795Z,6.50
2023-05-02T08:37:32.402Z,11.98
2023-05-02T08:40:01.862Z,8.48
2023-05-02T08:42:33.117Z,8.15
2023-05-02T08:45:02.095Z,8.50
2023-05-02T08:47:33.172Z,6.65
2023-05-02T08:50:04.060Z,4.70
2023-05-02T08:52:33.808Z,6.93
2023-05-02T08:55:03.834Z,5.15
2023-05-02T08:57:32.465Z,7.60
2023-05-02T09:00:00.684Z,4.43
2023-05-02T09:02:59.043Z,6.22
2023-05-02T09:05:28.830Z,5.82
2023-05-02T09:07:57.081Z,6.07
2023-05-02T09:10:29.685Z,6.93
2023-05-02T09:12:57.772Z,5.57
2023-05-02T09:15:25.910Z,7.05
2023-05-02T09:17:54.238Z,7.35
2023-05-02T09:20:22.735Z,5.13
2023-05-02T09:22:54.014Z,11.32
2023-05-02T09:25:22.179Z,9.48
2023-05-02T09:27:52.423Z,4.30
2023-05-02T09:30:22.433Z,5.03
2023-05-02T09:32:55.236Z,4.40
2023-05-02T09:35:26.679Z,7.40
2023-05-02T09:37:58.065Z,5.40
2023-05-02T09:40:28.192Z,6.97
2023-05-02T09:42:57.933Z,4.47
2023-05-02T09:45:27.899Z,8.60
2023-05-02T09:47:56.002Z,5.53
2023-05-02T09:50:40.393Z,6.43
2023-05-02T09:53:11.954Z,4.07
2023-05-02T09:55:40.118Z,3.80
2023-05-02T09:58:08.256Z,3.85
2023-05-02T10:00:43.762Z,4.03
2023-05-02T10:03:12.741Z,5.05
2023-05-02T10:05:41.372Z,4.72
2023-05-02T10:08:11.386Z,4.25
2023-05-02T10:10:40.768Z,3.95
2023-05-02T10:13:10.066Z,4.95
2023-05-02T10:15:43.884Z,5.25
2023-05-02T10:18:15.531Z,5.68
2023-05-02T10:20:49.938Z,3.17
2023-05-02T10:23:21.372Z,3.78
2023-05-02T10:25:50.375Z,6.72
2023-05-02T10:28:18.791Z,3.38
2023-05-02T10:30:47.849Z,3.80
2023-05-02T10:33:17.564Z,4.43
2023-05-02T10:35:46.990Z,5.22
2023-05-02T10:38:19.302Z,5.28
2023-05-02T10:40:59.174Z,3.60
2023-05-02T10:43:29.994Z,4.93
2023-05-02T10:45:58.409Z,3.67
2023-05-02T10:48:28.026Z,6.03
2023-05-02T10:50:57.757Z,6.03
2023-05-02T10:53:27.909Z,5.35
2023-05-02T10:56:18.378Z,4.25
2023-05-02T10:58:48.941Z,5.88
2023-05-02T11:01:40.375Z,4.63
2023-05-02T11:04:10.198Z,3.92
2023-05-02T11:06:59.347Z,4.18
2023-05-02T11:09:36.676Z,3.22
2023-05-02T11:12:07.226Z,4.60
2023-05-02T11:14:51.036Z,4.00
2023-05-02T11:17:21.150Z,3.28
2023-05-02T11:20:27.991Z,7.70
2023-05-02T11:22:58.334Z,4.35
2023-05-02T11:25:34.486Z,3.28
2023-05-02T11:28:06.557Z,3.38
2023-05-02T11:30:44.038Z,3.22
2023-05-02T11:33:20.309Z,5.93
2023-05-02T11:35:51.818Z,4.80
2023-05-02T11:38:23.097Z,3.25
2023-05-02T11:40:53.299Z,4.60
2023-05-02T11:43:25.409Z,4.53
2023-05-02T11:45:54.702Z,4.20
2023-05-02T11:48:27.306Z,5.90
2023-05-02T11:50:57.559Z,3.47
2023-05-02T11:53:28.941Z,4.53
2023-05-02T11:55:58.778Z,4.15
2023-05-02T11:58:32.323Z,4.95
2023-05-02T12:01:01.399Z,3.83
2023-05-02T12:03:31.402Z,5.32
2023-05-02T12:06:10.255Z,3.90
2023-05-02T12:08:38.779Z,5.82
2023-05-02T12:11:06.952Z,3.72
2023-05-02T12:13:36.667Z,4.30
2023-05-02T12:16:05.123Z,3.67
2023-05-02T12:18:34.266Z,5.15
2023-05-02T12:21:02.529Z,3.28
2023-05-02T12:23:30.814Z,7.38
2023-05-02T12:26:00.603Z,3.65
2023-05-02T12:28:28.826Z,5.30
2023-05-02T12:30:58.333Z,2.83
2023-05-02T12:33:26.641Z,7.00
2023-05-02T12:35:54.814Z,4.18
2023-05-02T12:38:23.572Z,3.97
2023-05-02T12:40:53.645Z,2.83
2023-05-02T12:43:22.394Z,3.72
2023-05-02T12:45:53.930Z,3.58
2023-05-02T12:48:25.745Z,4.72
2023-05-02T12:50:55.493Z,3.20
2023-05-02T12:53:40.913Z,3.58
2023-05-02T12:56:10.454Z,4.30
2023-05-02T12:58:43.225Z,4.15
2023-05-02T13:01:11.976Z,4.70
2023-05-02T13:03:42.099Z,4.28
2023-05-02T13:06:11.173Z,5.35
2023-05-02T13:08:39.938Z,6.38
2023-05-02T13:11:08.057Z,7.57
2023-05-02T13:13:36.348Z,8.52
2023-05-02T13:16:05.248Z,12.13
2023-05-02T13:21:03.069Z,32.60
2023-05-02T13:23:31.160Z,15.10
2023-05-02T13:25:59.291Z,17.58
2023-05-02T13:28:27.951Z,13.88
2023-05-02T13:30:56.185Z,18.30
2023-05-02T13:33:24.472Z,20.65
2023-05-02T13:35:52.623Z,15.93
2023-05-02T13:38:22.606Z,16.67
2023-05-02T13:40:51.566Z,15.30
2023-05-02T13:43:19.706Z,19.52
2023-05-02T13:45:49.092Z,14.65
2023-05-02T13:48:17.539Z,16.23
2023-05-02T13:50:45.588Z,16.45
2023-05-02T13:53:15.055Z,11.55
2023-05-02T13:55:44.684Z,10.50
2023-05-02T13:58:12.847Z,14.73
2023-05-02T14:00:40.952Z,14.77
2023-05-02T14:03:11.314Z,10.40
2023-05-02T14:05:43.633Z,10.40
2023-05-02T14:08:12.090Z,24.40
2023-05-02T14:10:40.337Z,20.95
2023-05-02T14:13:09.905Z,13.02
2023-05-02T14:15:38.357Z,11.45
2023-05-02T14:18:06.533Z,14.43
2023-05-02T14:20:34.673Z,11.15
2023-05-02T14:23:03.722Z,10.60
2023-05-02T14:25:32.809Z,10.85
2023-05-02T14:28:01.802Z,21.25
2023-05-02T14:30:32.296Z,18.35
2023-05-02T14:33:00.463Z,10.02
2023-05-02T14:35:28.962Z,37.03
2023-05-02T14:37:57.098Z,84.03
2023-05-02T14:40:25.180Z,208.30
2023-05-02T14:42:53.347Z,43.38
2023-05-02T14:45:21.544Z,80.00
2023-05-02T14:47:51.684Z,50.47
2023-05-02T14:50:20.006Z,41.08
2023-05-02T14:52:48.187Z,37.20
2023-05-02T14:55:16.205Z,9.45
2023-05-02T14:57:44.392Z,11.10
2023-05-02T15:00:13.527Z,46.05
2023-05-02T15:02:41.943Z,22.02
2023-05-02T15:05:13.118Z,23.85
2023-05-02T15:07:41.382Z,408.80
2023-05-02T15:10:10.457Z,15.95
2023-05-02T15:12:38.482Z,16.83
2023-05-02T15:15:09.146Z,71.35
2023-05-02T15:17:37.206Z,100.22
2023-05-02T15:20:06.070Z,154.07
2023-05-02T15:22:35.545Z,99.72
2023-05-02T15:25:05.362Z,147.27
2023-05-02T15:27:33.657Z,133.05
2023-05-02T15:30:03.244Z,176.77
2023-05-02T15:32:31.887Z,80.72
2023-05-02T15:34:59.993Z,187.75
2023-05-02T15:37:28.078Z,208.38
2023-05-02T15:39:57.568Z,107.13
2023-05-02T15:42:25.659Z,282.95
2023-05-02T15:44:54.152Z,129.10
2023-05-02T15:47:23.348Z,44.55
2023-05-02T15:49:53.967Z,133.90
2023-05-02T15:52:22.795Z,193.25
2023-05-02T15:54:51.978Z,248.00
2023-05-02T15:57:21.557Z,192.38
2023-05-02T15:59:50.034Z,97.25
2023-05-02T16:02:18.058Z,200.73
2023-05-02T16:04:46.564Z,115.88
2023-05-02T16:07:14.833Z,227.05
2023-05-02T16:09:42.858Z,212.73
2023-05-02T16:12:11.185Z,211.43
2023-05-02T16:14:40.723Z,134.20
2023-05-02T16:17:08.978Z,134.85
2023-05-02T16:19:37.081Z,43.08
2023-05-02T16:22:05.066Z,36.60
2023-05-02T16:24:33.030Z,56.40
2023-05-02T16:27:01.943Z,38.95
2023-05-02T16:29:30.049Z,16.30
2023-05-02T16:31:59.817Z,23.63
2023-05-02T16:34:28.170Z,6.40
2023-05-02T16:36:56.518Z,26.73
2023-05-02T16:39:24.666Z,16.35
2023-05-02T16:41:52.675Z,16.92
2023-05-02T16:44:20.720Z,9.77
2023-05-02T16:46:48.737Z,10.57
2023-05-02T16:49:18.191Z,9.18
2023-05-02T16:51:49.000Z,7.85
2023-05-02T16:54:17.181Z,6.47
2023-05-02T16:56:45.291Z,7.50
2023-05-02T16:59:13.438Z,8.10
2023-05-02T17:01:41.517Z,8.18
2023-05-02T17:04:09.918Z,6.85
2023-05-02T17:06:39.538Z,8.30
2023-05-02T17:09:07.705Z,5.53
2023-05-02T17:11:36.326Z,4.47
2023-05-02T17:14:04.869Z,6.25
2023-05-02T17:16:33.086Z,15.88
2023-05-02T17:19:01.297Z,10.02
2023-05-02T17:21:29.406Z,14.88
2023-05-02T17:23:58.906Z,19.73
2023-05-02T17:26:27.756Z,20.67
2023-05-02T17:28:55.877Z,17.15
2023-05-02T17:31:24.237Z,16.80
2023-05-02T17:33:52.395Z,16.50
2023-05-02T17:36:20.417Z,6.95
2023-05-02T17:38:48.556Z,10.32
2023-05-02T17:41:18.067Z,7.57
2023-05-02T17:43:46.904Z,8.93
2023-05-02T17:46:15.358Z,9.52
2023-05-02T17:48:44.656Z,11.00
2023-05-02T17:51:13.063Z,8.27
2023-05-02T17:53:42.610Z,14.02
2023-05-02T17:56:10.750Z,11.82
2023-05-02T17:58:40.112Z,14.30
2023-05-02T18:01:08.550Z,11.70
2023-05-02T18:03:36.962Z,14.13
2023-05-02T18:06:05.589Z,5.22
2023-05-02T18:08:33.802Z,14.18
2023-05-02T18:11:03.461Z,13.05
2023-05-02T18:13:32.496Z,13.77
2023-05-02T18:16:02.611Z,13.38
2023-05-02T18:18:31.066Z,17.50
2023-05-02T18:20:59.615Z,16.80
2023-05-02T18:23:27.881Z,16.80
2023-05-02T18:25:56.188Z,14.32
2023-05-02T18:28:27.214Z,11.90
2023-05-02T18:30:55.257Z,12.35
2023-05-02T18:33:24.797Z,17.30
2023-05-02T18:35:53.106Z,17.17
2023-05-02T18:38:21.136Z,12.32
2023-05-02T18:40:49.314Z,15.10
2023-05-02T18:43:17.947Z,14.80
2023-05-02T18:45:48.531Z,11.38
2023-05-02T18:48:16.843Z,15.30
2023-05-02T18:50:46.677Z,9.40
2023-05-02T18:53:15.398Z,18.10
2023-05-02T18:55:43.520Z,16.00
2023-05-02T18:58:11.588Z,12.43
2023-05-02T19:00:39.752Z,14.73
2023-05-02T19:03:08.039Z,9.50
2023-05-02T19:05:36.201Z,9.65
2023-05-02T19:08:06.413Z,11.23
2023-05-02T19:10:34.743Z,15.55
2023-05-02T19:13:03.912Z,9.48
2023-05-02T19:15:32.040Z,11.38
2023-05-02T19:18:00.625Z,11.90
2023-05-02T19:20:29.959Z,14.50
2023-05-02T19:23:18.331Z,12.70
2023-05-02T19:25:49.494Z,18.92
2023-05-02T19:28:17.785Z,9.75
2023-05-02T19:30:46.432Z,11.27
2023-05-02T19:33:14.689Z,15.35
2023-05-02T19:35:42.712Z,31.42
2023-05-02T19:38:10.870Z,23.95
2023-05-02T19:40:42.274Z,19.77
2023-05-02T19:43:11.781Z,19.13
2023-05-02T19:45:39.983Z,16.92
2023-05-02T19:48:08.459Z,14.82
2023-05-02T19:50:37.898Z,18.98
2023-05-02T19:53:06.064Z,16.83
2023-05-02T19:55:34.240Z,10.63
2023-05-02T19:58:04.442Z,14.07
2023-05-02T20:00:34.291Z,14.70
2023-05-02T20:03:03.283Z,16.42
2023-05-02T20:05:31.613Z,14.48
2023-05-02T20:08:00.233Z,10.80
2023-05-02T20:10:28.982Z,12.05
2023-05-02T20:12:57.124Z,10.77
2023-05-02T20:15:25.878Z,12.82
2023-05-02T20:17:58.113Z,11.27
2023-05-02T20:20:26.654Z,10.85
2023-05-02T20:22:55.404Z,14.27
2023-05-02T20:25:23.981Z,9.77
2023-05-02T20:27:52.857Z,14.75
2023-05-02T20:30:21.433Z,14.23
2023-05-02T20:32:49.985Z,17.27
2023-05-02T20:35:19.840Z,12.68
2023-05-02T20:37:48.763Z,14.23
2023-05-02T20:40:17.085Z,17.40
2023-05-02T20:42:45.420Z,16.85
2023-05-02T20:45:14.700Z,16.40
2023-05-02T20:47:42.976Z,17.42
2023-05-02T20:50:11.738Z,19.92
2023-05-02T20:52:41.524Z,19.48
2023-05-02T20:55:10.258Z,16.38
2023-05-02T20:57:38.489Z,15.35
2023-05-02T21:00:09.083Z,15.90
2023-05-02T21:02:37.262Z,13.98
2023-05-02T21:05:05.844Z,15.45
2023-05-02T21:07:34.129Z,13.98
2023-05-02T21:10:04.887Z,15.25
2023-05-02T21:12:33.654Z,18.63
2023-05-02T21:15:01.955Z,17.65
2023-05-02T21:17:30.745Z,17.92
2023-05-02T21:19:59.052Z,17.77
2023-05-02T21:22:27.792Z,14.07
2023-05-02T21:24:56.265Z,17.08
2023-05-02T21:27:26.242Z,19.05
2023-05-02T21:29:54.653Z,18.88
2023-05-02T21:32:22.792Z,21.48
2023-05-02T21:34:51.025Z,14.63
2023-05-02T21:37:19.235Z,16.10
2023-05-02T21:39:47.510Z,17.48
2023-05-02T21:42:15.783Z,15.65
2023-05-02T21:44:45.508Z,17.08
2023-05-02T21:47:13.855Z,17.20
2023-05-02T21:49:42.078Z,16.20
2023-05-02T21:52:10.312Z,26.30
2023-05-02T21:54:38.408Z,27.00
2023-05-02T21:57:06.489Z,23.45
2023-05-02T21:59:34.525Z,19.00
2023-05-02T22:02:04.131Z,18.10
2023-05-02T22:04:32.428Z,15.00
2023-05-02T22:07:00.753Z,17.02
2023-05-02T22:09:29.914Z,17.38
2023-05-02T22:11:59.197Z,15.90
2023-05-02T22:14:33.745Z,13.65
2023-05-02T22:17:11.323Z,11.57
2023-05-02T22:19:40.724Z,13.80
2023-05-02T22:22:08.849Z,14.05
2023-05-02T22:24:36.993Z,14.75
2023-05-02T22:27:05.204Z,13.10
2023-05-02T22:29:33.238Z,14.95
2023-05-02T22:32:01.495Z,19.67
2023-05-02T22:34:31.071Z,18.33
2023-05-02T22:36:59.146Z,18.58
2023-05-02T22:39:27.815Z,17.58
2023-05-02T22:41:55.917Z,14.48
2023-05-02T22:44:24.245Z,15.57
2023-05-02T22:46:52.398Z,14.57
2023-05-02T22:49:20.618Z,14.15
2023-05-02T22:51:50.337Z,14.40
2023-05-02T22:54:21.461Z,17.95
2023-05-02T22:56:49.621Z,14.18
2023-05-02T22:59:17.825Z,14.50
2023-05-02T23:01:46.061Z,15.05
2023-05-02T23:04:14.208Z,13.38
2023-05-02T23:06:42.476Z,15.95
2023-05-02T23:09:11.941Z,16.15
2023-05-02T23:11:40.017Z,13.88
2023-05-02T23:14:08.146Z,12.40
2023-05-02T23:16:36.339Z,12.73
2023-05-02T23:19:04.484Z,13.38
2023-05-02T23:21:32.685Z,15.25
2023-05-02T23:24:00.800Z,13.52
2023-05-02T23:26:30.629Z,14.77
2023-05-02T23:28:58.699Z,15.43
2023-05-02T23:31:27.097Z,15.07
2023-05-02T23:33:56.093Z,15.35
2023-05-02T23:36:27.286Z,14.63
2023-05-02T23:38:55.555Z,15.32
2023-05-02T23:41:23.650Z,15.25
2023-05-02T23:43:53.070Z,16.23
2023-05-02T23:46:21.137Z,14.52
2023-05-02T23:48:49.197Z,18.15
2023-05-02T23:51:17.287Z,16.15
2023-05-02T23:53:45.369Z,16.52
2023-05-02T23:56:13.409Z,14.98
2023-05-02T23:58:41.463Z,18.63
